Pagrindinis puslapis
METAR-TAF:

METAR-TAF

Oro uostai :

Scammon Bay, Aliaska, Jungtinės Amerikos Valstijos

platuma: 61-50-43N, ilguma: 165-34-17W, Aukštis: 4 m

Dabartinis oras

Ataskaita buvo paskelbta 20 minutes, ne 20:56 UTC
Vėjas 16 kt iš Rytų/Pietryčių su gūsio iki 22 kt
Temperatūra 7°C
Drėgmė 100%
Slėgis 996 hPa
Matomumas: 16.1 km
Su prošvaistėmis ne aukštis 1100 ft
Su prošvaistėmis ne aukštis 4600 ft
Su prošvaistėmis ne aukštis 5500 ft

METAR: PACM 212056Z AUTO 11016G22KT 10SM BKN011 BKN046 BKN055 07/07 A2941 RMK AO2 PK WND 10026/2002 RAE55 SLP953 P0001 60003 T00720067 56018

Laikas: 13:16 (21:16 UTC)


TAF: trūkstamas

Orai ataskaitas ir orų prognozės (METAR, TAF).

turimą stotys yra geltonos ir raudonos taškus žemėlapyje.

Perkelti pele per norėdami pamatyti stoties vardą.

Tada spustelėkite, norėdami matyti oro stebėjimo ir prognozės.

Norėdami pakeisti žemėlapį: spustelėkite ant žalios mygtukų su juodo kryžiaus žemyn,; žalią mygtuką su brūkšneliu, jei norite nutolinti; arba žalių rodyklių gretimoms žemėlapius.


METAR-TAF: